Terminal Aerodrome Forecast
Issued by NWS

Home | Current Version | Previous Version | Text Only | Print | Product List | Glossary On
Versions: 1 2 3 4 5 6 7 8 9 10 11 12 13 14 15 16 17 18
000
FTUS46 KMTR 281740
TAFSJC
TAF
KSJC 281740Z 2818/2918 VRB04KT P6SM SCT150
     FM281930 29010KT P6SM SCT200
     FM282300 31013KT P6SM SCT200
     FM290500 30008KT P6SM FEW015 SCT200
     FM290700 VRB03KT P6SM FEW015 SCT200
      TEMPO 2914/2916 BKN015=

USA.gov is the U.S. government's official web portal to all federal, state and local government web resources and services.